sensor_id;sensor_type;location;lat;lon;timestamp;pressure;altitude;pressure_sealevel;temperature;humidity
83424;BME280;73355;49.044;8.686;2024-03-08T00:00:13;99564.47;;;6.39;63.17
83424;BME280;73355;49.044;8.686;2024-03-08T00:02:42;99563.69;;;6.38;63.35
83424;BME280;73355;49.044;8.686;2024-03-08T00:05:08;99569.09;;;6.35;63.14
83424;BME280;73355;49.044;8.686;2024-03-08T00:07:38;99571.78;;;6.31;63.38
83424;BME280;73355;49.044;8.686;2024-03-08T00:10:05;99565.59;;;6.31;63.88
83424;BME280;73355;49.044;8.686;2024-03-08T00:12:30;99557.50;;;6.31;63.19
83424;BME280;73355;49.044;8.686;2024-03-08T00:14:56;99561.72;;;6.28;63.64
83424;BME280;73355;49.044;8.686;2024-03-08T00:17:21;99564.41;;;6.28;63.69
83424;BME280;73355;49.044;8.686;2024-03-08T00:19:50;99566.75;;;6.26;63.50
83424;BME280;73355;49.044;8.686;2024-03-08T00:22:16;99565.16;;;6.21;63.78
83424;BME280;73355;49.044;8.686;2024-03-08T00:24:42;99563.59;;;6.17;63.76
83424;BME280;73355;49.044;8.686;2024-03-08T00:27:07;99567.84;;;6.14;63.81
83424;BME280;73355;49.044;8.686;2024-03-08T00:29:34;99558.16;;;6.13;63.87
83424;BME280;73355;49.044;8.686;2024-03-08T00:31:59;99553.91;;;6.09;63.67
83424;BME280;73355;49.044;8.686;2024-03-08T00:34:25;99551.56;;;6.07;64.11
83424;BME280;73355;49.044;8.686;2024-03-08T00:36:50;99550.78;;;6.07;63.95
83424;BME280;73355;49.044;8.686;2024-03-08T00:39:16;99547.31;;;6.03;64.04
83424;BME280;73355;49.044;8.686;2024-03-08T00:41:42;99541.84;;;5.99;64.01
83424;BME280;73355;49.044;8.686;2024-03-08T00:44:09;99546.50;;;5.99;64.21
83424;BME280;73355;49.044;8.686;2024-03-08T00:46:35;99541.84;;;5.96;64.29
83424;BME280;73355;49.044;8.686;2024-03-08T00:49:00;99537.19;;;5.93;64.31
83424;BME280;73355;49.044;8.686;2024-03-08T00:51:26;99536.44;;;5.92;64.11
83424;BME280;73355;49.044;8.686;2024-03-08T00:53:51;99545.69;;;5.91;64.19
83424;BME280;73355;49.044;8.686;2024-03-08T00:56:17;99542.97;;;5.91;63.96
83424;BME280;73355;49.044;8.686;2024-03-08T00:58:42;99541.38;;;5.87;64.10
83424;BME280;73355;49.044;8.686;2024-03-08T01:01:08;99543.69;;;5.85;64.33
83424;BME280;73355;49.044;8.686;2024-03-08T01:03:35;99548.72;;;5.86;63.94
83424;BME280;73355;49.044;8.686;2024-03-08T01:06:01;99539.06;;;5.85;64.10
83424;BME280;73355;49.044;8.686;2024-03-08T01:08:26;99533.66;;;5.85;64.38
83424;BME280;73355;49.044;8.686;2024-03-08T01:10:52;99529.75;;;5.79;64.13
83424;BME280;73355;49.044;8.686;2024-03-08T01:13:18;99531.66;;;5.75;64.21
83424;BME280;73355;49.044;8.686;2024-03-08T01:15:44;99532.81;;;5.74;64.64
83424;BME280;73355;49.044;8.686;2024-03-08T01:18:10;99517.34;;;5.71;64.58
83424;BME280;73355;49.044;8.686;2024-03-08T01:20:36;99526.59;;;5.70;64.59
83424;BME280;73355;49.044;8.686;2024-03-08T01:23:01;99511.94;;;5.71;64.35
83424;BME280;73355;49.044;8.686;2024-03-08T01:25:26;99514.63;;;5.71;64.76
83424;BME280;73355;49.044;8.686;2024-03-08T01:27:52;99503.84;;;5.71;64.77
83424;BME280;73355;49.044;8.686;2024-03-08T01:30:19;99505.38;;;5.72;64.42
83424;BME280;73355;49.044;8.686;2024-03-08T01:32:44;99504.56;;;5.64;64.51
83424;BME280;73355;49.044;8.686;2024-03-08T01:35:10;99499.16;;;5.61;64.53
83424;BME280;73355;49.044;8.686;2024-03-08T01:37:36;99491.41;;;5.56;64.36
83424;BME280;73355;49.044;8.686;2024-03-08T01:40:01;99495.22;;;5.51;64.45
83424;BME280;73355;49.044;8.686;2024-03-08T01:42:28;99486.28;;;5.44;64.74
83424;BME280;73355;49.044;8.686;2024-03-08T01:44:54;99483.94;;;5.38;64.98
83424;BME280;73355;49.044;8.686;2024-03-08T01:47:19;99479.69;;;5.34;64.63
83424;BME280;73355;49.044;8.686;2024-03-08T01:49:50;99478.91;;;5.33;64.70
83424;BME280;73355;49.044;8.686;2024-03-08T01:52:17;99478.47;;;5.31;64.73
83424;BME280;73355;49.044;8.686;2024-03-08T01:54:47;99476.94;;;5.30;65.26
83424;BME280;73355;49.044;8.686;2024-03-08T01:57:13;99477.72;;;5.31;64.87
83424;BME280;73355;49.044;8.686;2024-03-08T01:59:39;99475.41;;;5.29;64.64
83424;BME280;73355;49.044;8.686;2024-03-08T02:02:06;99474.56;;;5.25;64.99
83424;BME280;73355;49.044;8.686;2024-03-08T02:04:34;99464.91;;;5.21;65.17
83424;BME280;73355;49.044;8.686;2024-03-08T02:06:59;99467.59;;;5.21;65.18
83424;BME280;73355;49.044;8.686;2024-03-08T02:09:25;99463.41;;;5.23;64.99
83424;BME280;73355;49.044;8.686;2024-03-08T02:11:51;99459.16;;;5.22;65.08
83424;BME280;73355;49.044;8.686;2024-03-08T02:14:17;99451.78;;;5.19;64.94
83424;BME280;73355;49.044;8.686;2024-03-08T02:16:43;99447.94;;;5.17;65.03
83424;BME280;73355;49.044;8.686;2024-03-08T02:19:09;99441.34;;;5.14;65.07
83424;BME280;73355;49.044;8.686;2024-03-08T02:21:35;99434.75;;;5.08;65.00
83424;BME280;73355;49.044;8.686;2024-03-08T02:24:01;99437.41;;;5.05;65.10
83424;BME280;73355;49.044;8.686;2024-03-08T02:26:27;99436.63;;;5.04;65.23
83424;BME280;73355;49.044;8.686;2024-03-08T02:28:52;99432.38;;;5.03;65.37
83424;BME280;73355;49.044;8.686;2024-03-08T02:31:18;99436.63;;;5.01;64.85
83424;BME280;73355;49.044;8.686;2024-03-08T02:33:43;99431.97;;;4.97;65.30
83424;BME280;73355;49.044;8.686;2024-03-08T02:36:08;99424.22;;;4.96;65.47
83424;BME280;73355;49.044;8.686;2024-03-08T02:38:34;99423.44;;;4.95;65.26
83424;BME280;73355;49.044;8.686;2024-03-08T02:40:59;99428.09;;;4.95;65.18
83424;BME280;73355;49.044;8.686;2024-03-08T02:43:24;99426.50;;;4.90;65.28
83424;BME280;73355;49.044;8.686;2024-03-08T02:45:50;99423.81;;;4.90;65.37
83424;BME280;73355;49.044;8.686;2024-03-08T02:48:17;99422.28;;;4.89;65.44
83424;BME280;73355;49.044;8.686;2024-03-08T02:50:43;99415.31;;;4.88;65.41
83424;BME280;73355;49.044;8.686;2024-03-08T02:53:09;99417.19;;;4.84;65.14
83424;BME280;73355;49.044;8.686;2024-03-08T02:55:36;99415.63;;;4.80;65.49
83424;BME280;73355;49.044;8.686;2024-03-08T02:58:03;99404.47;;;4.81;65.09
83424;BME280;73355;49.044;8.686;2024-03-08T03:00:29;99414.47;;;4.81;65.01
83424;BME280;73355;49.044;8.686;2024-03-08T03:02:56;99410.22;;;4.76;65.15
83424;BME280;73355;49.044;8.686;2024-03-08T03:05:22;99408.25;;;4.73;65.13
83424;BME280;73355;49.044;8.686;2024-03-08T03:07:48;99403.25;;;4.75;65.37
83424;BME280;73355;49.044;8.686;2024-03-08T03:10:14;99401.75;;;4.78;65.20
83424;BME280;73355;49.044;8.686;2024-03-08T03:12:42;99400.19;;;4.77;64.98
83424;BME280;73355;49.044;8.686;2024-03-08T03:15:08;99396.69;;;4.73;65.51
83424;BME280;73355;49.044;8.686;2024-03-08T03:17:33;99399.34;;;4.69;64.92
83424;BME280;73355;49.044;8.686;2024-03-08T03:19:58;99395.88;;;4.69;64.88
83424;BME280;73355;49.044;8.686;2024-03-08T03:22:24;99401.28;;;4.69;64.95
83424;BME280;73355;49.044;8.686;2024-03-08T03:24:50;99398.56;;;4.65;65.11
83424;BME280;73355;49.044;8.686;2024-03-08T03:27:16;99393.88;;;4.62;65.19
83424;BME280;73355;49.044;8.686;2024-03-08T03:29:43;99400.47;;;4.65;64.90
83424;BME280;73355;49.044;8.686;2024-03-08T03:32:13;99391.97;;;4.63;64.81
83424;BME280;73355;49.044;8.686;2024-03-08T03:34:39;99383.09;;;4.62;64.91
83424;BME280;73355;49.044;8.686;2024-03-08T03:37:05;99375.44;;;4.64;64.76
83424;BME280;73355;49.044;8.686;2024-03-08T03:39:32;99385.81;;;4.62;65.19
83424;BME280;73355;49.044;8.686;2024-03-08T03:41:59;99385.00;;;4.58;64.72
83424;BME280;73355;49.044;8.686;2024-03-08T03:44:29;99383.06;;;4.55;64.85
83424;BME280;73355;49.044;8.686;2024-03-08T03:46:54;99377.63;;;4.51;64.91
83424;BME280;73355;49.044;8.686;2024-03-08T03:49:20;99370.66;;;4.47;65.41
83424;BME280;73355;49.044;8.686;2024-03-08T03:51:45;99372.16;;;4.44;65.00
83424;BME280;73355;49.044;8.686;2024-03-08T03:54:11;99372.13;;;4.41;65.12
83424;BME280;73355;49.044;8.686;2024-03-08T03:56:37;99372.88;;;4.38;65.14
83424;BME280;73355;49.044;8.686;2024-03-08T03:59:03;99366.66;;;4.34;65.37
83424;BME280;73355;49.044;8.686;2024-03-08T04:01:28;99371.69;;;4.35;65.59
83424;BME280;73355;49.044;8.686;2024-03-08T04:03:54;99371.28;;;4.33;65.48
83424;BME280;73355;49.044;8.686;2024-03-08T04:06:20;99365.16;;;4.33;65.60
83424;BME280;73355;49.044;8.686;2024-03-08T04:08:45;99365.50;;;4.31;65.77
83424;BME280;73355;49.044;8.686;2024-03-08T04:11:11;99358.97;;;4.32;65.64
83424;BME280;73355;49.044;8.686;2024-03-08T04:13:36;99359.34;;;4.31;65.48
83424;BME280;73355;49.044;8.686;2024-03-08T04:16:02;99359.69;;;4.29;65.54
83424;BME280;73355;49.044;8.686;2024-03-08T04:18:28;99356.97;;;4.26;65.45
83424;BME280;73355;49.044;8.686;2024-03-08T04:20:53;99356.16;;;4.22;65.54
83424;BME280;73355;49.044;8.686;2024-03-08T04:23:19;99349.59;;;4.19;65.40
83424;BME280;73355;49.044;8.686;2024-03-08T04:25:44;99353.44;;;4.18;65.83
83424;BME280;73355;49.044;8.686;2024-03-08T04:28:10;99354.22;;;4.19;65.81
83424;BME280;73355;49.044;8.686;2024-03-08T04:30:38;99357.69;;;4.19;65.50
83424;BME280;73355;49.044;8.686;2024-03-08T04:33:05;99350.00;;;4.21;65.82
83424;BME280;73355;49.044;8.686;2024-03-08T04:35:31;99353.47;;;4.22;65.38
83424;BME280;73355;49.044;8.686;2024-03-08T04:37:56;99352.72;;;4.21;65.61
83424;BME280;73355;49.044;8.686;2024-03-08T04:40:22;99345.72;;;4.16;65.33
83424;BME280;73355;49.044;8.686;2024-03-08T04:42:48;99352.97;;;4.09;65.92
83424;BME280;73355;49.044;8.686;2024-03-08T04:45:16;99352.91;;;4.05;65.98
83424;BME280;73355;49.044;8.686;2024-03-08T04:47:41;99341.34;;;4.01;65.86
83424;BME280;73355;49.044;8.686;2024-03-08T04:50:07;99335.13;;;3.97;66.13
83424;BME280;73355;49.044;8.686;2024-03-08T04:52:34;99340.09;;;3.95;66.26
83424;BME280;73355;49.044;8.686;2024-03-08T04:54:59;99326.66;;;3.95;66.14
83424;BME280;73355;49.044;8.686;2024-03-08T04:57:24;99333.16;;;3.94;66.15
83424;BME280;73355;49.044;8.686;2024-03-08T04:59:50;99326.66;;;3.95;66.27
83424;BME280;73355;49.044;8.686;2024-03-08T05:02:16;99327.06;;;3.97;65.97
83424;BME280;73355;49.044;8.686;2024-03-08T05:04:42;99330.88;;;3.93;65.98
83424;BME280;73355;49.044;8.686;2024-03-08T05:07:08;99316.22;;;3.90;66.12
83424;BME280;73355;49.044;8.686;2024-03-08T05:09:33;99320.03;;;3.89;66.03
83424;BME280;73355;49.044;8.686;2024-03-08T05:11:59;99323.09;;;3.88;66.17
83424;BME280;73355;49.044;8.686;2024-03-08T05:14:24;99317.72;;;3.88;66.27
83424;BME280;73355;49.044;8.686;2024-03-08T05:16:50;99322.69;;;3.86;66.18
83424;BME280;73355;49.044;8.686;2024-03-08T05:19:16;99328.88;;;3.86;66.48
83424;BME280;73355;49.044;8.686;2024-03-08T05:21:49;99323.06;;;3.84;66.14
83424;BME280;73355;49.044;8.686;2024-03-08T05:24:15;99313.41;;;3.80;66.49
83424;BME280;73355;49.044;8.686;2024-03-08T05:26:41;99316.09;;;3.80;66.40
83424;BME280;73355;49.044;8.686;2024-03-08T05:29:07;99319.91;;;3.79;66.55
83424;BME280;73355;49.044;8.686;2024-03-08T05:31:48;99319.16;;;3.78;66.74
83424;BME280;73355;49.044;8.686;2024-03-08T05:34:15;99316.41;;;3.74;66.73
83424;BME280;73355;49.044;8.686;2024-03-08T05:36:41;99317.13;;;3.71;66.79
83424;BME280;73355;49.044;8.686;2024-03-08T05:39:09;99312.53;;;3.72;66.98
83424;BME280;73355;49.044;8.686;2024-03-08T05:41:37;99312.19;;;3.73;66.98
83424;BME280;73355;49.044;8.686;2024-03-08T05:44:02;99317.56;;;3.73;66.57
83424;BME280;73355;49.044;8.686;2024-03-08T05:46:28;99310.63;;;3.72;66.80
83424;BME280;73355;49.044;8.686;2024-03-08T05:48:53;99310.97;;;3.71;66.77
83424;BME280;73355;49.044;8.686;2024-03-08T05:51:19;99311.38;;;3.69;66.97
83424;BME280;73355;49.044;8.686;2024-03-08T05:53:46;99301.69;;;3.65;66.97
83424;BME280;73355;49.044;8.686;2024-03-08T05:56:11;99310.16;;;3.63;66.95
83424;BME280;73355;49.044;8.686;2024-03-08T05:58:36;99305.53;;;3.64;67.29
83424;BME280;73355;49.044;8.686;2024-03-08T06:01:02;99307.81;;;3.62;67.03
83424;BME280;73355;49.044;8.686;2024-03-08T06:03:27;99298.19;;;3.61;67.24
83424;BME280;73355;49.044;8.686;2024-03-08T06:05:52;99303.56;;;3.61;67.36
83424;BME280;73355;49.044;8.686;2024-03-08T06:08:18;99304.34;;;3.61;67.27
83424;BME280;73355;49.044;8.686;2024-03-08T06:10:44;99306.31;;;3.64;67.37
83424;BME280;73355;49.044;8.686;2024-03-08T06:13:09;99296.31;;;3.65;67.51
83424;BME280;73355;49.044;8.686;2024-03-08T06:15:37;99303.97;;;3.63;67.26
83424;BME280;73355;49.044;8.686;2024-03-08T06:18:02;99299.78;;;3.65;67.43
83424;BME280;73355;49.044;8.686;2024-03-08T06:20:27;99300.97;;;3.68;67.51
83424;BME280;73355;49.044;8.686;2024-03-08T06:22:53;99300.97;;;3.68;67.53
83424;BME280;73355;49.044;8.686;2024-03-08T06:25:18;99305.22;;;3.69;67.45
83424;BME280;73355;49.044;8.686;2024-03-08T06:27:44;99310.63;;;3.72;67.25
83424;BME280;73355;49.044;8.686;2024-03-08T06:30:11;99306.78;;;3.73;67.54
83424;BME280;73355;49.044;8.686;2024-03-08T06:32:37;99311.41;;;3.73;67.41
83424;BME280;73355;49.044;8.686;2024-03-08T06:35:03;99307.56;;;3.74;67.50
83424;BME280;73355;49.044;8.686;2024-03-08T06:37:32;99309.13;;;3.75;67.58
83424;BME280;73355;49.044;8.686;2024-03-08T06:39:57;99310.28;;;3.78;67.54
83424;BME280;73355;49.044;8.686;2024-03-08T06:42:22;99308.38;;;3.78;67.80
83424;BME280;73355;49.044;8.686;2024-03-08T06:44:48;99312.97;;;3.78;67.54
83424;BME280;73355;49.044;8.686;2024-03-08T06:47:16;99308.75;;;3.77;67.74
83424;BME280;73355;49.044;8.686;2024-03-08T06:49:42;99311.81;;;3.75;68.13
83424;BME280;73355;49.044;8.686;2024-03-08T06:52:09;99314.91;;;3.77;68.24
83424;BME280;73355;49.044;8.686;2024-03-08T06:54:35;99313.78;;;3.82;68.23
83424;BME280;73355;49.044;8.686;2024-03-08T06:57:04;99312.75;;;3.90;68.41
83424;BME280;73355;49.044;8.686;2024-03-08T06:59:30;99311.25;;;3.96;68.40
83424;BME280;73355;49.044;8.686;2024-03-08T07:01:56;99305.53;;;4.01;67.86
83424;BME280;73355;49.044;8.686;2024-03-08T07:04:21;99298.25;;;4.01;68.18
83424;BME280;73355;49.044;8.686;2024-03-08T07:06:49;99295.56;;;4.01;68.07
83424;BME280;73355;49.044;8.686;2024-03-08T07:11:45;99297.91;;;4.06;67.89
83424;BME280;73355;49.044;8.686;2024-03-08T07:14:12;99301.03;;;4.12;68.15
83424;BME280;73355;49.044;8.686;2024-03-08T07:16:37;99299.16;;;4.16;68.10
83424;BME280;73355;49.044;8.686;2024-03-08T07:19:04;99297.28;;;4.20;68.24
83424;BME280;73355;49.044;8.686;2024-03-08T07:21:30;99292.72;;;4.28;68.36
83424;BME280;73355;49.044;8.686;2024-03-08T07:23:56;99290.88;;;4.39;68.05
83424;BME280;73355;49.044;8.686;2024-03-08T07:26:24;99290.59;;;4.47;68.14
83424;BME280;73355;49.044;8.686;2024-03-08T07:28:50;99287.97;;;4.54;67.78
83424;BME280;73355;49.044;8.686;2024-03-08T07:31:15;99290.69;;;4.62;67.25
83424;BME280;73355;49.044;8.686;2024-03-08T07:34:19;99290.38;;;4.70;67.47
83424;BME280;73355;49.044;8.686;2024-03-08T07:36:46;99293.13;;;4.77;67.02
83424;BME280;73355;49.044;8.686;2024-03-08T07:39:11;99285.47;;;4.83;66.70
83424;BME280;73355;49.044;8.686;2024-03-08T07:41:37;99278.16;;;4.87;66.44
83424;BME280;73355;49.044;8.686;2024-03-08T07:44:05;99277.81;;;4.95;66.61
83424;BME280;73355;49.044;8.686;2024-03-08T07:46:30;99279.06;;;5.05;66.13
83424;BME280;73355;49.044;8.686;2024-03-08T07:48:56;99280.66;;;5.17;66.08
83424;BME280;73355;49.044;8.686;2024-03-08T07:51:21;99277.22;;;5.23;65.74
83424;BME280;73355;49.044;8.686;2024-03-08T07:53:46;99270.31;;;5.29;65.31
83424;BME280;73355;49.044;8.686;2024-03-08T07:56:12;99269.19;;;5.34;65.37
83424;BME280;73355;49.044;8.686;2024-03-08T07:58:38;99269.59;;;5.39;65.27
83424;BME280;73355;49.044;8.686;2024-03-08T08:01:06;99271.53;;;5.46;65.18
83424;BME280;73355;49.044;8.686;2024-03-08T08:03:31;99270.78;;;5.49;65.02
83424;BME280;73355;49.044;8.686;2024-03-08T08:05:56;99278.50;;;5.54;65.45
83424;BME280;73355;49.044;8.686;2024-03-08T08:08:22;99270.03;;;5.52;64.75
83424;BME280;73355;49.044;8.686;2024-03-08T08:10:47;99266.16;;;5.50;64.88
83424;BME280;73355;49.044;8.686;2024-03-08T08:13:12;99276.16;;;5.49;65.20
83424;BME280;73355;49.044;8.686;2024-03-08T08:15:38;99267.69;;;5.51;65.48
83424;BME280;73355;49.044;8.686;2024-03-08T08:18:03;99276.94;;;5.53;65.48
83424;BME280;73355;49.044;8.686;2024-03-08T08:20:30;99271.97;;;5.59;65.29
83424;BME280;73355;49.044;8.686;2024-03-08T08:22:56;99267.34;;;5.59;65.14
83424;BME280;73355;49.044;8.686;2024-03-08T08:25:22;99269.66;;;5.61;65.17
83424;BME280;73355;49.044;8.686;2024-03-08T08:27:49;99265.81;;;5.65;65.49
83424;BME280;73355;49.044;8.686;2024-03-08T08:30:15;99258.84;;;5.64;64.59
83424;BME280;73355;49.044;8.686;2024-03-08T08:32:40;99249.63;;;5.62;64.60
83424;BME280;73355;49.044;8.686;2024-03-08T08:35:10;99255.38;;;5.60;64.70
83424;BME280;73355;49.044;8.686;2024-03-08T08:37:38;99250.75;;;5.61;64.02
83424;BME280;73355;49.044;8.686;2024-03-08T08:40:04;99247.31;;;5.64;63.88
83424;BME280;73355;49.044;8.686;2024-03-08T08:42:30;99250.75;;;5.64;64.53
83424;BME280;73355;49.044;8.686;2024-03-08T08:44:56;99248.47;;;5.70;64.60
83424;BME280;73355;49.044;8.686;2024-03-08T08:47:22;99248.09;;;5.68;64.60
83424;BME280;73355;49.044;8.686;2024-03-08T08:49:57;99255.00;;;5.62;63.70
83424;BME280;73355;49.044;8.686;2024-03-08T08:52:23;99251.91;;;5.56;63.65
83424;BME280;73355;49.044;8.686;2024-03-08T08:54:48;99244.56;;;5.50;63.74
83424;BME280;73355;49.044;8.686;2024-03-08T08:57:14;99241.09;;;5.53;63.94
83424;BME280;73355;49.044;8.686;2024-03-08T08:59:40;99239.56;;;5.59;64.81
83424;BME280;73355;49.044;8.686;2024-03-08T09:02:06;99245.00;;;5.69;65.15
83424;BME280;73355;49.044;8.686;2024-03-08T09:04:32;99241.94;;;5.78;64.84
83424;BME280;73355;49.044;8.686;2024-03-08T09:06:57;99243.47;;;5.82;64.92
83424;BME280;73355;49.044;8.686;2024-03-08T09:09:23;99236.94;;;5.83;64.36
83424;BME280;73355;49.044;8.686;2024-03-08T09:11:50;99244.63;;;5.81;63.96
83424;BME280;73355;49.044;8.686;2024-03-08T09:14:16;99232.69;;;5.82;64.30
83424;BME280;73355;49.044;8.686;2024-03-08T09:16:41;99227.69;;;5.85;64.04
83424;BME280;73355;49.044;8.686;2024-03-08T09:19:07;99228.44;;;5.85;64.29
83424;BME280;73355;49.044;8.686;2024-03-08T09:21:33;99225.34;;;5.83;64.81
83424;BME280;73355;49.044;8.686;2024-03-08T09:24:00;99218.06;;;5.87;64.62
83424;BME280;73355;49.044;8.686;2024-03-08T09:26:25;99215.00;;;5.92;64.23
83424;BME280;73355;49.044;8.686;2024-03-08T09:28:52;99212.69;;;5.98;64.26
83424;BME280;73355;49.044;8.686;2024-03-08T09:31:17;99214.97;;;5.99;64.21
83424;BME280;73355;49.044;8.686;2024-03-08T09:33:42;99217.69;;;5.96;64.06
83424;BME280;73355;49.044;8.686;2024-03-08T09:36:08;99216.16;;;6.02;64.29
83424;BME280;73355;49.044;8.686;2024-03-08T09:38:33;99211.13;;;6.04;63.99
83424;BME280;73355;49.044;8.686;2024-03-08T09:41:00;99213.84;;;6.07;64.67
83424;BME280;73355;49.044;8.686;2024-03-08T09:43:27;99209.59;;;6.13;64.00
83424;BME280;73355;49.044;8.686;2024-03-08T09:45:53;99211.53;;;6.16;64.21
83424;BME280;73355;49.044;8.686;2024-03-08T09:48:21;99211.91;;;6.18;64.55
83424;BME280;73355;49.044;8.686;2024-03-08T09:50:46;99199.16;;;6.22;63.96
83424;BME280;73355;49.044;8.686;2024-03-08T09:53:13;99208.44;;;6.18;63.98
83424;BME280;73355;49.044;8.686;2024-03-08T09:55:38;99210.75;;;6.19;63.61
83424;BME280;73355;49.044;8.686;2024-03-08T09:58:14;99204.56;;;6.22;63.73
83424;BME280;73355;49.044;8.686;2024-03-08T10:01:02;99209.19;;;6.22;63.44
83424;BME280;73355;49.044;8.686;2024-03-08T10:03:27;99213.47;;;6.19;63.30
83424;BME280;73355;49.044;8.686;2024-03-08T10:05:53;99198.03;;;6.20;63.41
83424;BME280;73355;49.044;8.686;2024-03-08T10:08:21;99206.13;;;6.16;62.58
83424;BME280;73355;49.044;8.686;2024-03-08T10:10:47;99191.44;;;6.10;62.47
83424;BME280;73355;49.044;8.686;2024-03-08T10:13:12;99187.59;;;6.15;63.19
83424;BME280;73355;49.044;8.686;2024-03-08T10:15:39;99195.31;;;6.23;63.87
83424;BME280;73355;49.044;8.686;2024-03-08T10:18:05;99193.78;;;6.37;64.39
83424;BME280;73355;49.044;8.686;2024-03-08T10:20:31;99189.09;;;6.58;64.98
83424;BME280;73355;49.044;8.686;2024-03-08T10:23:00;99187.94;;;6.63;63.22
83424;BME280;73355;49.044;8.686;2024-03-08T10:25:25;99178.66;;;6.64;62.84
83424;BME280;73355;49.044;8.686;2024-03-08T10:27:51;99180.97;;;6.66;62.98
83424;BME280;73355;49.044;8.686;2024-03-08T10:30:17;99183.66;;;6.69;62.44
83424;BME280;73355;49.044;8.686;2024-03-08T10:32:47;99164.34;;;6.71;62.40
83424;BME280;73355;49.044;8.686;2024-03-08T10:35:13;99165.09;;;6.78;62.70
83424;BME280;73355;49.044;8.686;2024-03-08T10:37:50;99167.78;;;6.89;62.67
83424;BME280;73355;49.044;8.686;2024-03-08T10:40:24;99161.97;;;6.90;61.75
83424;BME280;73355;49.044;8.686;2024-03-08T10:42:56;99160.78;;;6.95;62.13
83424;BME280;73355;49.044;8.686;2024-03-08T10:47:57;99153.84;;;6.90;60.88
83424;BME280;73355;49.044;8.686;2024-03-08T10:50:28;99157.69;;;7.00;61.87
83424;BME280;73355;49.044;8.686;2024-03-08T10:52:57;99151.81;;;7.12;62.01
83424;BME280;73355;49.044;8.686;2024-03-08T10:55:23;99147.94;;;7.17;61.11
83424;BME280;73355;49.044;8.686;2024-03-08T10:57:49;99146.34;;;7.26;61.45
83424;BME280;73355;49.044;8.686;2024-03-08T11:00:15;99149.03;;;7.33;61.09
83424;BME280;73355;49.044;8.686;2024-03-08T11:02:45;99138.13;;;7.40;60.75
83424;BME280;73355;49.044;8.686;2024-03-08T11:05:10;99142.75;;;7.47;60.75
83424;BME280;73355;49.044;8.686;2024-03-08T11:07:42;99140.03;;;7.51;60.21
83424;BME280;73355;49.044;8.686;2024-03-08T11:10:19;99140.03;;;7.51;59.50
83424;BME280;73355;49.044;8.686;2024-03-08T11:12:45;99137.31;;;7.47;59.07
83424;BME280;73355;49.044;8.686;2024-03-08T11:15:12;99139.69;;;7.41;59.34
83424;BME280;73355;49.044;8.686;2024-03-08T11:17:47;99141.22;;;7.46;59.73
83424;BME280;73355;49.044;8.686;2024-03-08T11:20:18;99135.38;;;7.47;59.43
83424;BME280;73355;49.044;8.686;2024-03-08T11:23:06;99133.13;;;7.39;58.66
83424;BME280;73355;49.044;8.686;2024-03-08T11:25:41;99142.00;;;7.43;58.97
83424;BME280;73355;49.044;8.686;2024-03-08T11:28:20;99130.00;;;7.40;58.83
83424;BME280;73355;49.044;8.686;2024-03-08T11:33:24;99124.97;;;7.42;58.54
83424;BME280;73355;49.044;8.686;2024-03-08T11:35:51;99130.31;;;7.57;58.50
83424;BME280;73355;49.044;8.686;2024-03-08T11:38:16;99123.25;;;7.70;58.55
83424;BME280;73355;49.044;8.686;2024-03-08T11:40:46;99116.22;;;7.79;58.54
83424;BME280;73355;49.044;8.686;2024-03-08T11:43:15;99118.03;;;7.93;58.51
83424;BME280;73355;49.044;8.686;2024-03-08T11:45:41;99113.31;;;8.01;58.60
83424;BME280;73355;49.044;8.686;2024-03-08T11:48:06;99110.56;;;8.04;58.15
83424;BME280;73355;49.044;8.686;2024-03-08T11:50:31;99107.53;;;7.99;57.61
83424;BME280;73355;49.044;8.686;2024-03-08T11:53:04;99097.78;;;8.08;57.52
83424;BME280;73355;49.044;8.686;2024-03-08T11:55:33;99101.59;;;8.14;57.12
83424;BME280;73355;49.044;8.686;2024-03-08T11:58:05;99099.28;;;8.13;56.67
83424;BME280;73355;49.044;8.686;2024-03-08T12:00:33;99089.53;;;8.19;56.38
83424;BME280;73355;49.044;8.686;2024-03-08T12:03:04;99088.38;;;8.20;56.69
83424;BME280;73355;49.044;8.686;2024-03-08T12:05:30;99079.28;;;8.41;56.20
83424;BME280;73355;49.044;8.686;2024-03-08T12:07:59;99081.78;;;8.58;55.88
83424;BME280;73355;49.044;8.686;2024-03-08T12:10:24;99080.56;;;8.63;56.47
83424;BME280;73355;49.044;8.686;2024-03-08T12:12:52;99070.31;;;8.44;55.87
83424;BME280;73355;49.044;8.686;2024-03-08T12:15:19;99071.25;;;8.30;56.09
83424;BME280;73355;49.044;8.686;2024-03-08T12:17:47;99065.41;;;8.32;56.57
83424;BME280;73355;49.044;8.686;2024-03-08T12:20:31;99060.16;;;8.51;58.10
83424;BME280;73355;49.044;8.686;2024-03-08T12:22:57;99054.94;;;8.67;57.98
83424;BME280;73355;49.044;8.686;2024-03-08T12:25:26;99057.47;;;8.82;56.86
83424;BME280;73355;49.044;8.686;2024-03-08T12:27:52;99052.78;;;9.12;56.20
83424;BME280;73355;49.044;8.686;2024-03-08T12:30:26;99037.13;;;9.47;55.32
83424;BME280;73355;49.044;8.686;2024-03-08T12:33:01;99036.25;;;9.77;54.39
83424;BME280;73355;49.044;8.686;2024-03-08T12:35:28;99034.13;;;9.65;53.64
83424;BME280;73355;49.044;8.686;2024-03-08T12:37:56;99032.72;;;9.80;54.07
83424;BME280;73355;49.044;8.686;2024-03-08T12:40:29;99026.34;;;10.10;54.34
83424;BME280;73355;49.044;8.686;2024-03-08T12:42:56;99017.53;;;10.45;53.84
83424;BME280;73355;49.044;8.686;2024-03-08T12:45:25;99012.16;;;10.61;52.06
83424;BME280;73355;49.044;8.686;2024-03-08T12:47:51;99011.06;;;10.59;51.64
83424;BME280;73355;49.044;8.686;2024-03-08T12:50:18;99005.66;;;10.55;51.19
83424;BME280;73355;49.044;8.686;2024-03-08T12:52:43;98996.69;;;10.58;50.97
83424;BME280;73355;49.044;8.686;2024-03-08T12:55:08;98994.84;;;10.71;51.12
83424;BME280;73355;49.044;8.686;2024-03-08T12:57:35;98998.03;;;10.86;50.93
83424;BME280;73355;49.044;8.686;2024-03-08T13:00:02;98989.53;;;11.00;50.88
83424;BME280;73355;49.044;8.686;2024-03-08T13:02:28;98981.38;;;11.16;50.44
83424;BME280;73355;49.044;8.686;2024-03-08T13:04:53;98970.00;;;11.22;49.94
83424;BME280;73355;49.044;8.686;2024-03-08T13:07:25;98961.13;;;11.17;49.72
83424;BME280;73355;49.044;8.686;2024-03-08T13:09:54;98962.47;;;11.42;50.46
83424;BME280;73355;49.044;8.686;2024-03-08T13:12:21;98964.00;;;11.75;50.95
83424;BME280;73355;49.044;8.686;2024-03-08T13:14:47;98958.53;;;12.04;50.28